createdAt,value
2023-09-11T00:00:36.416Z,8.73
2023-09-11T00:03:23.569Z,7.28
2023-09-11T00:06:03.876Z,6.35
2023-09-11T00:08:32.135Z,7.93
2023-09-11T00:10:59.754Z,5.85
2023-09-11T00:13:27.692Z,7.03
2023-09-11T00:15:54.936Z,5.35
2023-09-11T00:18:21.924Z,4.45
2023-09-11T00:20:49.311Z,7.30
2023-09-11T00:23:16.424Z,7.13
2023-09-11T00:25:44.355Z,4.25
2023-09-11T00:28:11.342Z,5.35
2023-09-11T00:30:38.968Z,4.80
2023-09-11T00:33:06.620Z,6.50
2023-09-11T00:35:34.367Z,5.60
2023-09-11T00:38:01.400Z,6.18
2023-09-11T00:40:28.682Z,5.97
2023-09-11T00:42:55.632Z,6.35
2023-09-11T00:45:22.873Z,6.03
2023-09-11T00:47:50.648Z,5.05
2023-09-11T00:50:21.248Z,5.60
2023-09-11T00:52:48.756Z,4.68
2023-09-11T00:55:16.034Z,4.47
2023-09-11T00:57:43.789Z,6.82
2023-09-11T01:00:11.548Z,6.75
2023-09-11T01:02:38.815Z,4.93
2023-09-11T01:05:09.721Z,9.43
2023-09-11T01:07:36.985Z,6.15
2023-09-11T01:10:07.606Z,7.65
2023-09-11T01:12:38.521Z,5.90
2023-09-11T01:15:06.986Z,8.15
2023-09-11T01:17:39.921Z,7.20
2023-09-11T01:20:33.859Z,4.63
2023-09-11T01:23:38.150Z,5.65
2023-09-11T01:26:12.444Z,8.18
2023-09-11T01:28:45.395Z,7.28
2023-09-11T01:31:13.751Z,7.57
2023-09-11T01:33:40.814Z,7.90
2023-09-11T01:36:08.639Z,6.30
2023-09-11T01:38:35.650Z,8.65
2023-09-11T01:41:05.383Z,6.57
2023-09-11T01:43:37.103Z,5.25
2023-09-11T01:46:05.795Z,5.85
2023-09-11T01:48:33.455Z,7.13
2023-09-11T01:51:00.992Z,4.25
2023-09-11T01:53:28.183Z,5.97
2023-09-11T01:55:56.766Z,5.30
2023-09-11T01:58:23.933Z,6.15
2023-09-11T02:00:51.133Z,5.35
2023-09-11T02:03:18.202Z,4.70
2023-09-11T02:05:45.623Z,3.95
2023-09-11T02:08:12.590Z,8.20
2023-09-11T02:10:39.952Z,5.72
2023-09-11T02:13:06.846Z,5.88
2023-09-11T02:15:34.347Z,8.23
2023-09-11T02:18:01.395Z,6.70
2023-09-11T02:20:28.966Z,5.07
2023-09-11T02:22:55.898Z,5.43
2023-09-11T02:25:23.172Z,3.65
2023-09-11T02:27:50.165Z,8.43
2023-09-11T02:30:17.634Z,4.95
2023-09-11T02:32:45.181Z,12.43
2023-09-11T02:35:13.042Z,4.20
2023-09-11T02:37:43.145Z,4.35
2023-09-11T02:40:11.558Z,4.95
2023-09-11T02:42:39.702Z,7.25
2023-09-11T02:45:07.505Z,5.43
2023-09-11T02:47:34.499Z,6.40
2023-09-11T02:50:02.185Z,6.25
2023-09-11T02:52:29.127Z,5.38
2023-09-11T02:54:56.423Z,4.55
2023-09-11T02:57:23.375Z,10.30
2023-09-11T02:59:55.367Z,5.57
2023-09-11T03:02:25.435Z,9.85
2023-09-11T03:04:52.977Z,5.60
2023-09-11T03:07:20.025Z,7.28
2023-09-11T03:09:47.420Z,6.10
2023-09-11T03:12:14.606Z,5.85
2023-09-11T03:14:42.027Z,5.45
2023-09-11T03:17:10.962Z,4.68
2023-09-11T03:19:38.257Z,11.20
2023-09-11T03:22:05.588Z,5.50
2023-09-11T03:24:32.837Z,5.60
2023-09-11T03:26:59.883Z,7.93
2023-09-11T03:29:27.156Z,9.43
2023-09-11T03:31:54.069Z,7.68
2023-09-11T03:34:21.476Z,7.00
2023-09-11T03:36:48.683Z,7.82
2023-09-11T03:39:16.043Z,6.40
2023-09-11T03:41:43.249Z,8.20
2023-09-11T03:44:10.794Z,5.88
2023-09-11T03:46:38.128Z,7.50
2023-09-11T03:49:05.553Z,8.85
2023-09-11T03:51:32.680Z,10.43
2023-09-11T03:54:00.124Z,5.80
2023-09-11T03:56:28.634Z,7.43
2023-09-11T03:58:56.136Z,8.05
2023-09-11T04:01:23.188Z,8.27
2023-09-11T04:03:50.561Z,8.20
2023-09-11T04:06:17.620Z,8.95
2023-09-11T04:08:45.075Z,8.60
2023-09-11T04:11:12.146Z,14.88
2023-09-11T04:13:39.621Z,10.20
2023-09-11T04:16:06.688Z,7.40
2023-09-11T04:18:34.228Z,6.75
2023-09-11T04:21:04.814Z,9.02
2023-09-11T04:23:33.979Z,6.97
2023-09-11T04:26:01.518Z,5.65
2023-09-11T04:28:28.913Z,9.80
2023-09-11T04:30:56.084Z,7.88
2023-09-11T04:33:23.530Z,5.38
2023-09-11T04:35:52.764Z,5.97
2023-09-11T04:38:20.742Z,5.78
2023-09-11T04:40:47.638Z,6.03
2023-09-11T04:43:15.024Z,8.57
2023-09-11T04:45:42.056Z,8.85
2023-09-11T04:48:09.424Z,9.68
2023-09-11T04:50:36.727Z,7.05
2023-09-11T04:53:04.982Z,7.47
2023-09-11T04:55:33.121Z,8.70
2023-09-11T04:58:00.418Z,8.30
2023-09-11T05:00:27.603Z,6.88
2023-09-11T05:02:55.297Z,9.35
2023-09-11T05:05:22.472Z,10.07
2023-09-11T05:07:49.695Z,10.07
2023-09-11T05:10:16.738Z,9.93
2023-09-11T05:12:44.337Z,8.55
2023-09-11T05:15:12.056Z,7.93
2023-09-11T05:17:39.311Z,9.50
2023-09-11T05:20:07.693Z,10.98
2023-09-11T05:22:35.580Z,9.18
2023-09-11T05:25:02.550Z,7.38
2023-09-11T05:27:30.007Z,6.97
2023-09-11T05:29:56.998Z,8.68
2023-09-11T05:32:24.713Z,7.78
2023-09-11T05:34:52.708Z,7.18
2023-09-11T05:37:20.110Z,10.02
2023-09-11T05:39:47.727Z,14.30
2023-09-11T05:42:14.983Z,7.40
2023-09-11T05:44:41.939Z,10.55
2023-09-11T05:47:10.234Z,9.85
2023-09-11T05:49:37.203Z,9.02
2023-09-11T05:52:04.981Z,10.73
2023-09-11T05:54:32.018Z,10.02
2023-09-11T05:56:59.352Z,8.45
2023-09-11T05:59:26.380Z,10.50
2023-09-11T06:01:53.670Z,9.40
2023-09-11T06:04:20.658Z,8.32
2023-09-11T06:06:47.904Z,9.30
2023-09-11T06:09:14.928Z,10.98
2023-09-11T06:11:42.321Z,11.52
2023-09-11T06:14:09.462Z,8.52
2023-09-11T06:16:36.809Z,10.88
2023-09-11T06:19:04.036Z,13.60
2023-09-11T06:21:31.481Z,9.65
2023-09-11T06:23:58.435Z,13.48
2023-09-11T06:26:25.716Z,12.07
2023-09-11T06:28:52.812Z,9.25
2023-09-11T06:31:20.906Z,11.98
2023-09-11T06:33:48.063Z,7.88
2023-09-11T06:36:15.356Z,8.65
2023-09-11T06:38:42.651Z,12.05
2023-09-11T06:41:10.366Z,7.70
2023-09-11T06:43:38.319Z,8.68
2023-09-11T06:46:05.861Z,8.68
2023-09-11T06:48:32.878Z,8.52
2023-09-11T06:51:00.222Z,7.82
2023-09-11T06:53:27.263Z,10.05
2023-09-11T06:55:54.748Z,11.18
2023-09-11T06:58:21.973Z,28.40
2023-09-11T07:00:49.288Z,13.95
2023-09-11T07:03:18.578Z,8.50
2023-09-11T07:05:47.086Z,8.77
2023-09-11T07:08:14.075Z,11.50
2023-09-11T07:10:42.061Z,9.30
2023-09-11T07:13:09.457Z,10.00
2023-09-11T07:15:36.779Z,8.15
2023-09-11T07:18:04.072Z,8.82
2023-09-11T07:20:31.473Z,9.98
2023-09-11T07:22:58.571Z,8.25
2023-09-11T07:25:25.883Z,10.55
2023-09-11T07:27:55.855Z,9.07
2023-09-11T07:30:23.238Z,11.80
2023-09-11T07:32:53.579Z,8.77
2023-09-11T07:35:21.115Z,9.77
2023-09-11T07:37:49.627Z,10.77
2023-09-11T07:40:17.345Z,10.50
2023-09-11T07:42:44.444Z,10.48
2023-09-11T07:45:11.672Z,11.73
2023-09-11T07:47:38.833Z,9.55
2023-09-11T07:50:06.703Z,8.77
2023-09-11T07:52:33.605Z,11.55
2023-09-11T07:55:00.805Z,9.68
2023-09-11T07:57:27.891Z,6.90
2023-09-11T07:59:55.156Z,8.55
2023-09-11T08:02:22.736Z,9.63
2023-09-11T08:04:49.960Z,8.48
2023-09-11T08:07:17.060Z,5.68
2023-09-11T08:09:44.357Z,9.25
2023-09-11T08:12:11.304Z,12.93
2023-09-11T08:14:38.941Z,9.70
2023-09-11T08:17:05.863Z,18.73
2023-09-11T08:19:33.182Z,9.25
2023-09-11T08:22:00.644Z,8.57
2023-09-11T08:24:27.838Z,9.95
2023-09-11T08:26:54.870Z,6.82
2023-09-11T08:29:22.457Z,9.25
2023-09-11T08:31:49.623Z,7.78
2023-09-11T08:34:17.045Z,8.23
2023-09-11T08:36:46.057Z,9.65
2023-09-11T08:39:13.598Z,10.38
2023-09-11T08:41:41.856Z,10.90
2023-09-11T08:44:09.108Z,11.25
2023-09-11T08:46:37.648Z,6.15
2023-09-11T08:49:08.321Z,7.05
2023-09-11T08:51:40.129Z,9.43
2023-09-11T08:54:11.056Z,8.90
2023-09-11T08:56:40.699Z,10.35
2023-09-11T08:59:09.140Z,5.88
2023-09-11T09:01:36.289Z,8.45
2023-09-11T09:04:04.644Z,9.45
2023-09-11T09:06:32.376Z,9.15
2023-09-11T09:09:00.059Z,5.15
2023-09-11T09:11:27.425Z,8.55
2023-09-11T09:13:56.184Z,8.43
2023-09-11T09:16:23.222Z,8.93
2023-09-11T09:18:51.445Z,7.32
2023-09-11T09:21:20.185Z,6.97
2023-09-11T09:23:47.560Z,9.93
2023-09-11T09:26:15.871Z,12.35
2023-09-11T09:28:45.737Z,8.10
2023-09-11T09:31:22.604Z,6.95
2023-09-11T09:33:55.330Z,6.25
2023-09-11T09:36:23.708Z,6.40
2023-09-11T09:38:51.741Z,7.45
2023-09-11T09:41:22.122Z,5.07
2023-09-11T09:43:54.660Z,8.25
2023-09-11T09:46:23.635Z,6.32
2023-09-11T09:48:51.807Z,10.13
2023-09-11T09:51:19.740Z,8.75
2023-09-11T09:53:48.427Z,10.32
2023-09-11T09:56:15.903Z,8.98
2023-09-11T09:58:45.676Z,6.38
2023-09-11T10:01:15.284Z,9.73
2023-09-11T10:03:51.019Z,6.63
2023-09-11T10:06:22.728Z,7.15
2023-09-11T10:09:11.694Z,8.13
2023-09-11T10:11:39.847Z,6.40
2023-09-11T10:14:09.576Z,7.10
2023-09-11T10:16:36.936Z,6.38
2023-09-11T10:19:05.068Z,8.55
2023-09-11T10:21:33.338Z,6.18
2023-09-11T10:24:00.830Z,5.93
2023-09-11T10:26:34.719Z,6.53
2023-09-11T10:29:05.054Z,9.55
2023-09-11T10:31:44.627Z,9.90
2023-09-11T10:34:12.824Z,7.47
2023-09-11T10:36:42.563Z,12.88
2023-09-11T10:39:10.636Z,5.65
2023-09-11T10:41:37.927Z,14.20
2023-09-11T10:44:06.113Z,7.93
2023-09-11T10:46:35.162Z,8.07
2023-09-11T10:49:14.455Z,7.85
2023-09-11T10:51:41.518Z,9.63
2023-09-11T10:54:17.500Z,6.85
2023-09-11T10:56:44.822Z,5.97
2023-09-11T10:59:12.718Z,12.60
2023-09-11T11:01:39.743Z,8.38
2023-09-11T11:04:07.751Z,5.95
2023-09-11T11:06:34.978Z,8.38
2023-09-11T11:09:02.706Z,11.10
2023-09-11T11:11:32.799Z,11.80
2023-09-11T11:14:15.682Z,10.05
2023-09-11T11:17:12.148Z,8.65
2023-09-11T11:19:53.215Z,7.72
2023-09-11T11:22:31.245Z,8.20
2023-09-11T11:24:59.486Z,7.43
2023-09-11T11:27:26.898Z,5.53
2023-09-11T11:29:55.151Z,9.65
2023-09-11T11:32:22.857Z,8.18
2023-09-11T11:34:51.755Z,12.25
2023-09-11T11:37:22.998Z,7.53
2023-09-11T11:39:51.218Z,8.70
2023-09-11T11:42:18.470Z,7.32
2023-09-11T11:44:45.946Z,6.68
2023-09-11T11:47:13.216Z,7.72
2023-09-11T11:49:40.534Z,8.13
2023-09-11T11:52:07.607Z,7.75
2023-09-11T11:54:36.210Z,8.60
2023-09-11T11:57:05.294Z,5.57
2023-09-11T11:59:34.793Z,8.07
2023-09-11T12:02:02.000Z,6.28
2023-09-11T12:04:47.280Z,12.88
2023-09-11T12:07:15.572Z,10.35
2023-09-11T12:09:43.211Z,7.88
2023-09-11T12:12:10.598Z,8.60
2023-09-11T12:14:38.540Z,11.18
2023-09-11T12:17:12.450Z,11.00
2023-09-11T12:19:40.820Z,6.47
2023-09-11T12:22:10.022Z,5.80
2023-09-11T12:24:37.418Z,8.32
2023-09-11T12:27:06.468Z,8.55
2023-09-11T12:29:34.225Z,5.53
2023-09-11T12:32:01.471Z,8.95
2023-09-11T12:34:45.171Z,8.38
2023-09-11T12:37:12.219Z,13.65
2023-09-11T12:39:39.723Z,6.72
2023-09-11T12:42:06.794Z,7.40
2023-09-11T12:44:34.131Z,7.28
2023-09-11T12:47:02.254Z,11.88
2023-09-11T12:49:29.812Z,11.18
2023-09-11T12:51:56.854Z,6.13
2023-09-11T12:54:25.350Z,10.48
2023-09-11T12:56:52.489Z,6.88
2023-09-11T12:59:19.740Z,10.15
2023-09-11T13:01:46.759Z,6.78
2023-09-11T13:04:14.183Z,9.02
2023-09-11T13:06:42.335Z,6.32
2023-09-11T13:09:09.774Z,7.18
2023-09-11T13:11:36.794Z,8.00
2023-09-11T13:14:15.272Z,9.30
2023-09-11T13:16:44.234Z,7.43
2023-09-11T13:19:11.559Z,13.85
2023-09-11T13:21:38.522Z,8.48
2023-09-11T13:24:06.114Z,8.40
2023-09-11T13:26:33.242Z,5.40
2023-09-11T13:29:00.496Z,15.70
2023-09-11T13:31:28.313Z,8.43
2023-09-11T13:33:56.100Z,7.65
2023-09-11T13:36:23.354Z,10.85
2023-09-11T13:38:50.680Z,7.50
2023-09-11T13:41:17.764Z,8.00
2023-09-11T13:43:45.334Z,9.48
2023-09-11T13:46:12.810Z,9.02
2023-09-11T13:48:40.561Z,8.70
2023-09-11T13:51:08.161Z,9.02
2023-09-11T13:53:35.438Z,8.18
2023-09-11T13:56:02.536Z,7.40
2023-09-11T13:58:29.815Z,9.00
2023-09-11T14:00:56.811Z,5.63
2023-09-11T14:03:24.382Z,12.35
2023-09-11T14:05:51.830Z,8.02
2023-09-11T14:08:19.275Z,5.05
2023-09-11T14:10:46.397Z,8.07
2023-09-11T14:13:13.780Z,8.45
2023-09-11T14:15:41.278Z,5.50
2023-09-11T14:18:08.821Z,10.90
2023-09-11T14:20:35.932Z,5.25
2023-09-11T14:23:03.550Z,7.10
2023-09-11T14:25:30.480Z,7.80
2023-09-11T14:27:57.848Z,7.88
2023-09-11T14:30:25.766Z,8.18
2023-09-11T14:32:53.299Z,7.85
2023-09-11T14:35:20.602Z,9.18
2023-09-11T14:37:47.841Z,5.97
2023-09-11T14:40:14.781Z,11.80
2023-09-11T14:42:42.062Z,12.27
2023-09-11T14:45:10.242Z,12.93
2023-09-11T14:47:37.788Z,10.07
2023-09-11T14:50:08.784Z,10.27
2023-09-11T14:52:36.161Z,8.52
2023-09-11T14:55:03.354Z,9.02
2023-09-11T14:57:30.700Z,8.55
2023-09-11T14:59:57.932Z,9.20
2023-09-11T15:02:25.388Z,8.30
2023-09-11T15:04:53.016Z,9.20
2023-09-11T15:07:21.329Z,12.40
2023-09-11T15:09:49.446Z,5.97
2023-09-11T15:12:17.109Z,6.32
2023-09-11T15:14:44.990Z,7.35
2023-09-11T15:17:12.346Z,9.60
2023-09-11T15:19:39.997Z,9.18
2023-09-11T15:22:08.085Z,7.68
2023-09-11T15:24:35.906Z,14.70
2023-09-11T15:27:04.159Z,7.05
2023-09-11T15:29:31.744Z,11.75
2023-09-11T15:32:11.705Z,8.32
2023-09-11T15:34:41.937Z,10.10
2023-09-11T15:37:14.856Z,6.32
2023-09-11T15:39:42.666Z,15.60
2023-09-11T15:42:09.920Z,6.45
2023-09-11T15:44:36.994Z,8.55
2023-09-11T15:47:04.348Z,13.23
2023-09-11T15:49:31.402Z,9.32
2023-09-11T15:52:04.380Z,6.60
2023-09-11T15:54:32.018Z,9.15
2023-09-11T15:56:59.343Z,6.82
2023-09-11T15:59:26.372Z,8.90
2023-09-11T16:01:53.651Z,12.65
2023-09-11T16:04:20.702Z,9.73
2023-09-11T16:06:48.181Z,13.73
2023-09-11T16:09:15.194Z,32.95
2023-09-11T16:11:42.576Z,12.30
2023-09-11T16:14:09.598Z,7.68
2023-09-11T16:16:38.229Z,14.88
2023-09-11T16:19:05.184Z,12.10
2023-09-11T16:21:40.164Z,12.00
2023-09-11T16:24:08.921Z,13.20
2023-09-11T16:26:37.653Z,8.23
2023-09-11T16:29:04.618Z,9.93
2023-09-11T16:31:31.897Z,10.25
2023-09-11T16:33:59.175Z,10.93
2023-09-11T16:36:26.632Z,9.88
2023-09-11T16:38:53.991Z,6.20
2023-09-11T16:41:21.392Z,7.30
2023-09-11T16:43:48.352Z,8.80
2023-09-11T16:46:15.685Z,9.90
2023-09-11T16:48:43.082Z,10.95
2023-09-11T16:51:10.894Z,6.32
2023-09-11T16:53:37.851Z,10.43
2023-09-11T16:56:06.664Z,7.10
2023-09-11T16:58:33.631Z,8.95
2023-09-11T17:01:07.902Z,9.57
2023-09-11T17:03:35.060Z,9.38
2023-09-11T17:06:04.082Z,9.30
2023-09-11T17:08:31.286Z,7.60
2023-09-11T17:10:59.101Z,13.45
2023-09-11T17:13:26.110Z,13.68
2023-09-11T17:15:53.402Z,9.75
2023-09-11T17:18:20.499Z,11.65
2023-09-11T17:20:48.011Z,12.00
2023-09-11T17:23:15.170Z,15.38
2023-09-11T17:25:42.391Z,16.73
2023-09-11T17:28:11.803Z,13.68
2023-09-11T17:30:39.206Z,11.25
2023-09-11T17:33:09.841Z,14.10
2023-09-11T17:35:38.503Z,14.43
2023-09-11T17:38:06.061Z,12.73
2023-09-11T17:40:33.775Z,10.60
2023-09-11T17:43:00.944Z,16.30
2023-09-11T17:45:28.745Z,12.20
2023-09-11T17:47:56.564Z,8.43
2023-09-11T17:50:24.108Z,11.20
2023-09-11T17:52:51.190Z,13.85
2023-09-11T17:55:18.662Z,13.90
2023-09-11T17:57:45.810Z,12.40
2023-09-11T18:00:13.805Z,7.15
2023-09-11T18:02:41.255Z,10.75
2023-09-11T18:05:08.830Z,13.93
2023-09-11T18:07:36.687Z,19.70
2023-09-11T18:10:05.091Z,26.17
2023-09-11T18:12:32.389Z,34.00
2023-09-11T18:15:00.433Z,25.40
2023-09-11T18:17:27.682Z,24.67
2023-09-11T18:19:55.947Z,27.13
2023-09-11T18:22:23.494Z,20.08
2023-09-11T18:24:51.017Z,16.80
2023-09-11T18:27:17.997Z,12.82
2023-09-11T18:29:46.059Z,16.02
2023-09-11T18:32:13.261Z,13.93
2023-09-11T18:34:40.827Z,12.77
2023-09-11T18:37:07.855Z,12.30
2023-09-11T18:39:35.391Z,8.93
2023-09-11T18:42:02.788Z,13.05
2023-09-11T18:44:30.352Z,9.00
2023-09-11T18:46:57.315Z,9.10
2023-09-11T18:49:24.772Z,9.98
2023-09-11T18:51:56.855Z,11.63
2023-09-11T18:54:26.160Z,12.82
2023-09-11T18:56:55.435Z,9.48
2023-09-11T18:59:22.875Z,10.00
2023-09-11T19:01:50.378Z,9.48
2023-09-11T19:04:18.733Z,9.95
2023-09-11T19:06:45.881Z,13.15
2023-09-11T19:09:13.221Z,14.90
2023-09-11T19:11:40.246Z,12.80
2023-09-11T19:14:07.526Z,11.45
2023-09-11T19:16:34.550Z,7.85
2023-09-11T19:19:01.984Z,11.20
2023-09-11T19:21:30.279Z,10.45
2023-09-11T19:23:57.951Z,9.38
2023-09-11T19:26:25.239Z,9.75
2023-09-11T19:28:53.345Z,10.57
2023-09-11T19:31:22.695Z,11.25
2023-09-11T19:33:50.752Z,11.40
2023-09-11T19:36:18.119Z,13.23
2023-09-11T19:38:46.057Z,13.45
2023-09-11T19:41:13.440Z,12.75
2023-09-11T19:43:41.054Z,12.27
2023-09-11T19:46:08.500Z,13.73
2023-09-11T19:48:37.083Z,12.30
2023-09-11T19:51:05.221Z,13.27
2023-09-11T19:53:32.713Z,18.40
2023-09-11T19:56:00.583Z,10.80
2023-09-11T19:58:29.470Z,11.38
2023-09-11T20:00:56.730Z,11.38
2023-09-11T20:03:25.616Z,10.68
2023-09-11T20:05:55.946Z,16.50
2023-09-11T20:08:23.235Z,21.67
2023-09-11T20:10:50.210Z,15.18
2023-09-11T20:13:19.103Z,10.98
2023-09-11T20:15:46.096Z,14.73
2023-09-11T20:18:13.519Z,11.90
2023-09-11T20:20:40.517Z,11.98
2023-09-11T20:23:07.760Z,15.50
2023-09-11T20:25:35.224Z,11.73
2023-09-11T20:28:02.461Z,16.98
2023-09-11T20:30:29.536Z,11.73
2023-09-11T20:32:56.965Z,10.50
2023-09-11T20:35:23.983Z,9.05
2023-09-11T20:37:51.400Z,16.77
2023-09-11T20:40:18.390Z,18.90
2023-09-11T20:42:45.656Z,10.23
2023-09-11T20:45:12.659Z,13.77
2023-09-11T20:47:39.960Z,12.15
2023-09-11T20:50:08.782Z,11.10
2023-09-11T20:52:36.603Z,13.40
2023-09-11T20:55:05.772Z,14.15
2023-09-11T20:57:33.502Z,16.13
2023-09-11T21:00:00.902Z,11.00
2023-09-11T21:02:28.416Z,10.68
2023-09-11T21:04:56.784Z,11.43
2023-09-11T21:07:24.407Z,19.08
2023-09-11T21:09:51.850Z,13.50
2023-09-11T21:12:19.359Z,10.65
2023-09-11T21:14:46.310Z,13.68
2023-09-11T21:17:13.614Z,13.98
2023-09-11T21:19:40.875Z,12.27
2023-09-11T21:22:08.347Z,11.88
2023-09-11T21:24:35.313Z,15.48
2023-09-11T21:27:02.566Z,16.10
2023-09-11T21:29:29.609Z,12.13
2023-09-11T21:31:57.676Z,12.80
2023-09-11T21:34:24.661Z,11.45
2023-09-11T21:36:51.917Z,15.60
2023-09-11T21:39:18.863Z,11.40
2023-09-11T21:41:46.174Z,12.32
2023-09-11T21:44:13.191Z,11.82
2023-09-11T21:46:40.487Z,13.80
2023-09-11T21:49:07.585Z,11.32
2023-09-11T21:51:34.880Z,14.77
2023-09-11T21:54:13.950Z,16.80
2023-09-11T21:56:46.564Z,13.73
2023-09-11T21:59:13.701Z,14.07
2023-09-11T22:01:41.041Z,11.18
2023-09-11T22:04:08.433Z,15.60
2023-09-11T22:06:35.979Z,15.15
2023-09-11T22:09:03.162Z,14.95
2023-09-11T22:11:30.374Z,12.48
2023-09-11T22:13:57.672Z,10.80
2023-09-11T22:16:25.005Z,14.60
2023-09-11T22:18:52.091Z,15.80
2023-09-11T22:21:19.957Z,23.88
2023-09-11T22:23:47.110Z,24.73
2023-09-11T22:26:14.474Z,24.45
2023-09-11T22:28:41.405Z,14.48
2023-09-11T22:31:08.993Z,18.80
2023-09-11T22:36:03.518Z,35.13
2023-09-11T22:38:30.577Z,31.75
2023-09-11T22:40:57.858Z,28.73
2023-09-11T22:43:24.837Z,22.15
2023-09-11T22:45:52.072Z,20.63
2023-09-11T22:48:19.136Z,21.92
2023-09-11T22:50:46.450Z,15.70
2023-09-11T22:53:13.394Z,12.68
2023-09-11T22:55:40.768Z,12.93
2023-09-11T22:58:09.509Z,15.45
2023-09-11T23:00:40.918Z,14.55
2023-09-11T23:03:09.114Z,14.45
2023-09-11T23:05:37.575Z,18.05
2023-09-11T23:08:05.165Z,12.80
2023-09-11T23:10:32.742Z,16.75
2023-09-11T23:12:59.957Z,11.98
2023-09-11T23:15:27.547Z,12.07
2023-09-11T23:17:54.705Z,13.70
2023-09-11T23:20:22.091Z,12.32
2023-09-11T23:22:49.050Z,13.55
2023-09-11T23:25:16.349Z,14.93
2023-09-11T23:27:43.265Z,20.80
2023-09-11T23:30:11.391Z,19.15
2023-09-11T23:32:38.567Z,15.23
2023-09-11T23:35:06.493Z,15.98
2023-09-11T23:37:33.659Z,13.70
2023-09-11T23:40:01.000Z,16.30
2023-09-11T23:42:28.079Z,13.18
2023-09-11T23:44:55.423Z,15.85
2023-09-11T23:47:22.407Z,16.10
2023-09-11T23:49:49.676Z,18.42
2023-09-11T23:52:26.470Z,15.50
2023-09-11T23:54:55.710Z,14.27
2023-09-11T23:57:23.196Z,14.45
2023-09-11T23:59:50.672Z,21.65
